Time;durP1;ratioP1;P1;durP2;ratioP2;P2;SDS_P1;SDS_P2;PMS_P1;PMS_P2;Temp;Humidity;BMP_temperature;BMP_pressure;BME280_temperature;BME280_humidity;BME280_pressure;Samples;Min_cycle;Max_cycle;Signal;HPM_P1;HPM_P2
2022/11/07 00:01:09;;;;;;;13.80;8.20;;;;;;;11.32;49.95;101425.33;105980;1305;21959;-64
2022/11/07 00:03:36;;;;;;;13.00;8.30;;;;;;;11.27;49.87;101425.51;105980;1307;21958;-64
2022/11/07 00:06:02;;;;;;;15.00;8.20;;;;;;;11.20;49.87;101424.96;106077;1304;21961;-64
2022/11/07 00:08:30;;;;;;;14.90;8.00;;;;;;;11.14;50.02;101425.84;105955;1298;21974;-64
2022/11/07 00:10:57;;;;;;;12.00;7.40;;;;;;;11.09;50.25;101419.85;106048;1305;21960;-65
2022/11/07 00:13:23;;;;;;;10.00;6.40;;;;;;;11.08;50.07;101418.44;106116;1305;22064;-64
2022/11/07 00:15:51;;;;;;;13.00;6.80;;;;;;;11.04;49.99;101420.02;106076;1304;22002;-63
2022/11/07 00:18:18;;;;;;;14.70;7.80;;;;;;;10.99;50.07;101418.08;105987;1308;21961;-64
2022/11/07 00:20:52;;;;;;;13.90;8.20;;;;;;;10.97;50.12;101416.67;106010;1296;23310;-65
2022/11/07 00:23:20;;;;;;;12.10;7.20;;;;;;;10.94;50.28;101416.66;106063;1304;21976;-65
2022/11/07 00:25:46;;;;;;;10.90;7.20;;;;;;;10.90;50.28;101417.70;106021;1305;21966;-65
2022/11/07 00:28:12;;;;;;;13.80;8.10;;;;;;;10.87;50.24;101416.81;106091;1304;21965;-64
2022/11/07 00:30:38;;;;;;;12.00;7.60;;;;;;;10.85;50.27;101414.87;106004;1304;21966;-64
2022/11/07 00:33:04;;;;;;;10.10;6.70;;;;;;;10.87;50.20;101412.59;105983;1304;23080;-64
2022/11/07 00:35:30;;;;;;;10.80;5.70;;;;;;;10.89;50.02;101409.45;105982;1305;21953;-64
2022/11/07 00:37:56;;;;;;;9.80;6.10;;;;;;;10.87;50.04;101409.61;105983;1304;21969;-64
2022/11/07 00:40:21;;;;;;;11.10;6.70;;;;;;;10.84;49.96;101409.41;106077;1304;21967;-65
2022/11/07 00:42:47;;;;;;;17.20;7.30;;;;;;;10.80;49.93;101409.94;106046;1305;21968;-64
2022/11/07 00:45:14;;;;;;;11.30;7.00;;;;;;;10.76;49.94;101406.42;106143;1301;21962;-64
2022/11/07 00:47:40;;;;;;;15.20;7.10;;;;;;;10.73;50.06;101401.66;106154;1304;21960;-64
2022/11/07 00:50:06;;;;;;;13.80;6.80;;;;;;;10.70;50.09;101403.23;106103;1304;21957;-64
2022/11/07 00:52:32;;;;;;;10.00;6.10;;;;;;;10.66;50.18;101404.27;106115;1304;21957;-63
2022/11/07 00:55:01;;;;;;;10.70;5.60;;;;;;;10.60;50.33;101409.69;106043;1304;21965;-64
2022/11/07 00:57:29;;;;;;;10.60;5.70;;;;;;;10.55;50.37;101412.31;106202;1304;21974;-64
2022/11/07 00:59:56;;;;;;;12.70;6.10;;;;;;;10.53;50.37;101411.77;106064;1304;21950;-65
2022/11/07 01:02:22;;;;;;;10.50;6.90;;;;;;;10.52;50.38;101411.94;106110;1296;21965;-66
2022/11/07 01:07:32;;;;;;;9.60;6.90;;;;;;;10.53;50.36;101405.98;106219;1304;21964;-64
2022/11/07 01:10:01;;;;;;;14.70;7.00;;;;;;;10.49;50.34;101402.45;106026;1304;21957;-63
2022/11/07 01:12:26;;;;;;;11.30;6.50;;;;;;;10.46;50.44;101399.11;105988;1304;21966;-63
2022/11/07 01:14:52;;;;;;;14.60;6.60;;;;;;;10.44;50.39;101397.86;106015;1304;21966;-63
2022/11/07 01:17:18;;;;;;;11.70;5.80;;;;;;;10.40;50.36;101395.38;106055;1304;21968;-66
2022/11/07 01:19:44;;;;;;;10.10;5.90;;;;;;;10.37;50.48;101390.80;105912;1304;21966;-65
2022/11/07 01:22:11;;;;;;;12.20;6.50;;;;;;;10.35;50.39;101389.03;105927;1304;21935;-65
2022/11/07 01:24:37;;;;;;;14.50;6.60;;;;;;;10.34;50.39;101388.31;106072;1304;21961;-65
2022/11/07 01:27:02;;;;;;;13.80;6.40;;;;;;;10.35;50.44;101388.14;105946;1304;21966;-63
2022/11/07 01:29:28;;;;;;;14.10;6.70;;;;;;;10.36;50.43;101390.96;105628;1306;21992;-63
2022/11/07 01:31:55;;;;;;;17.50;6.90;;;;;;;10.35;50.29;101387.96;105792;1306;23095;-63
2022/11/07 01:34:20;;;;;;;11.30;7.00;;;;;;;10.33;50.32;101387.96;106017;1301;21965;-63
2022/11/07 01:36:46;;;;;;;11.80;6.50;;;;;;;10.30;50.36;101386.19;106019;1304;21972;-63
2022/11/07 01:39:13;;;;;;;11.00;6.50;;;;;;;10.26;50.39;101389.52;105991;1304;21963;-64
2022/11/07 01:41:39;;;;;;;10.50;6.10;;;;;;;10.22;50.32;101390.70;105980;1304;21969;-64
2022/11/07 01:44:05;;;;;;;12.20;7.20;;;;;;;10.19;50.37;101387.36;106005;1304;21938;-64
2022/11/07 01:46:39;;;;;;;12.70;6.20;;;;;;;10.18;50.29;101386.83;106072;1304;21963;-64
2022/11/07 01:49:15;;;;;;;12.30;6.60;;;;;;;10.16;50.44;101385.05;105986;1304;21954;-63
2022/11/07 01:51:47;;;;;;;13.80;7.00;;;;;;;10.16;50.41;101385.59;106034;1305;21960;-64
2022/11/07 01:54:13;;;;;;;12.30;6.60;;;;;;;10.12;50.34;101383.64;106014;1300;21960;-63
2022/11/07 01:56:40;;;;;;;14.10;6.70;;;;;;;10.09;50.39;101384.32;105650;1304;21969;-64
2022/11/07 01:59:06;;;;;;;12.50;6.70;;;;;;;10.07;50.40;101383.26;106025;1304;23122;-63
2022/11/07 02:01:32;;;;;;;10.30;6.50;;;;;;;10.04;50.45;101384.11;105707;1306;22024;-63
2022/11/07 02:03:58;;;;;;;10.70;6.10;;;;;;;10.02;50.43;101384.10;105914;1304;21962;-64
2022/11/07 02:06:44;;;;;;;10.30;5.70;;;;;;;9.99;50.38;101386.52;105963;1302;21966;-64
2022/11/07 02:09:10;;;;;;;13.00;6.40;;;;;;;9.95;50.47;101387.40;105974;1304;21964;-63
2022/11/07 02:11:36;;;;;;;9.90;6.50;;;;;;;9.91;50.56;101387.54;105982;1300;22014;-64
2022/11/07 02:14:04;;;;;;;10.20;6.90;;;;;;;9.88;50.55;101386.64;105814;1304;21995;-63
2022/11/07 02:16:33;;;;;;;11.60;7.10;;;;;;;9.87;50.53;101387.69;106041;1304;21964;-63
2022/11/07 02:19:01;;;;;;;11.80;7.20;;;;;;;9.85;50.57;101386.27;106011;1304;21984;-63
2022/11/07 02:21:48;;;;;;;10.00;7.10;;;;;;;9.82;50.43;101382.23;105728;1302;23682;-63
2022/11/07 02:24:31;;;;;;;12.80;6.40;;;;;;;9.77;50.45;101382.70;105734;1306;21954;-64
2022/11/07 02:26:57;;;;;;;10.50;6.10;;;;;;;9.73;50.56;101380.05;105925;1300;21957;-63
2022/11/07 02:29:23;;;;;;;12.10;7.10;;;;;;;9.73;50.60;101378.65;105599;1306;21970;-63
2022/11/07 02:32:05;;;;;;;10.20;6.80;;;;;;;9.76;50.69;101379.54;107282;1304;21979;-64
2022/11/07 02:34:31;;;;;;;10.60;6.60;;;;;;;9.78;50.65;101380.08;107482;1306;21978;-64
2022/11/07 02:36:57;;;;;;;13.20;7.00;;;;;;;9.78;50.75;101379.04;107887;1304;22102;-64
2022/11/07 02:39:23;;;;;;;13.10;7.60;;;;;;;9.80;50.79;101376.42;107850;1306;21898;-65
2022/11/07 02:41:48;;;;;;;15.00;7.00;;;;;;;9.82;50.78;101374.16;105844;1304;21970;-63
2022/11/07 02:44:14;;;;;;;14.00;6.80;;;;;;;9.81;50.75;101374.69;105660;1303;21973;-64
2022/11/07 02:46:39;;;;;;;12.20;6.90;;;;;;;9.77;50.70;101378.51;105754;1306;21969;-64
2022/11/07 02:49:05;;;;;;;16.00;6.60;;;;;;;9.76;50.86;101380.25;105770;1306;21969;-64
2022/11/07 02:51:31;;;;;;;13.40;6.10;;;;;;;9.77;50.87;101379.20;105985;1303;21988;-63
2022/11/07 02:53:57;;;;;;;14.40;6.80;;;;;;;9.78;50.83;101378.86;106006;1305;21969;-64
2022/11/07 02:56:23;;;;;;;11.60;6.90;;;;;;;9.77;50.89;101376.23;106040;1299;21971;-64
2022/11/07 02:58:51;;;;;;;14.80;7.30;;;;;;;9.77;50.88;101373.94;106037;1304;21972;-63
2022/11/07 03:01:17;;;;;;;10.50;6.50;;;;;;;9.75;50.81;101379.89;105993;1305;21962;-63
2022/11/07 03:03:45;;;;;;;11.00;7.20;;;;;;;9.72;50.78;101379.87;106035;1304;21959;-64
2022/11/07 03:06:19;;;;;;;13.60;8.10;;;;;;;9.72;50.80;101376.00;105778;1306;22011;-63
2022/11/07 03:08:45;;;;;;;12.50;7.30;;;;;;;9.71;50.85;101371.11;106050;1304;22851;-63
2022/11/07 03:11:12;;;;;;;10.50;6.80;;;;;;;9.69;50.82;101370.57;106007;1304;21964;-63
2022/11/07 03:13:38;;;;;;;12.50;7.30;;;;;;;9.67;50.87;101373.88;106046;1302;21984;-63
2022/11/07 03:16:05;;;;;;;11.00;6.40;;;;;;;9.67;50.87;101373.70;106045;1304;21957;-64
2022/11/07 03:18:32;;;;;;;12.50;6.90;;;;;;;9.67;50.89;101371.60;105975;1304;21964;-63
2022/11/07 03:20:59;;;;;;;9.90;6.80;;;;;;;9.64;50.99;101370.88;106020;1304;22014;-64
2022/11/07 03:23:26;;;;;;;12.10;7.50;;;;;;;9.63;51.06;101371.22;106005;1300;21970;-65
2022/11/07 03:25:51;;;;;;;11.70;8.10;;;;;;;9.64;51.07;101375.09;106137;1304;21963;-64
2022/11/07 03:28:17;;;;;;;14.00;7.80;;;;;;;9.64;51.07;101374.91;106025;1304;21956;-64
2022/11/07 03:30:43;;;;;;;19.00;9.20;;;;;;;9.64;51.07;101372.11;106003;1304;21960;-64
2022/11/07 03:33:09;;;;;;;15.90;8.50;;;;;;;9.63;51.12;101369.81;105980;1302;21967;-64
2022/11/07 03:35:34;;;;;;;33.90;13.50;;;;;;;9.62;51.09;101370.68;105995;1304;23744;-64
2022/11/07 03:38:00;;;;;;;22.10;8.80;;;;;;;9.61;51.10;101366.66;105948;1304;23727;-65
2022/11/07 03:40:26;;;;;;;37.60;9.70;;;;;;;9.60;51.14;101364.36;106032;1304;21962;-64
2022/11/07 03:42:56;;;;;;;13.50;7.70;;;;;;;9.58;51.10;101365.94;106035;1297;22744;-64
2022/11/07 03:45:22;;;;;;;14.60;8.50;;;;;;;9.59;51.17;101362.60;106031;1304;22020;-63
2022/11/07 03:47:48;;;;;;;14.10;8.80;;;;;;;9.60;51.21;101357.36;106065;1304;21970;-64
2022/11/07 03:50:17;;;;;;;14.20;8.10;;;;;;;9.63;51.19;101360.89;105929;1300;21970;-64
2022/11/07 03:52:43;;;;;;;14.60;8.60;;;;;;;9.65;51.29;101357.74;106034;1303;22004;-65
2022/11/07 03:55:10;;;;;;;16.40;8.90;;;;;;;9.65;51.31;101355.98;105951;1305;23624;-64
2022/11/07 03:57:36;;;;;;;13.90;7.60;;;;;;;9.65;51.31;101353.89;105970;1301;21966;-64
2022/11/07 04:00:02;;;;;;;14.90;7.00;;;;;;;9.65;51.23;101356.88;105946;1305;22761;-65
2022/11/07 04:02:28;;;;;;;17.30;8.10;;;;;;;9.66;51.27;101353.02;106183;1304;21989;-65
2022/11/07 04:04:54;;;;;;;15.40;7.60;;;;;;;9.67;51.37;101350.05;105993;1296;21975;-64
2022/11/07 04:07:20;;;;;;;13.60;7.70;;;;;;;9.70;51.42;101351.46;106001;1304;21967;-64
2022/11/07 04:09:45;;;;;;;12.70;8.20;;;;;;;9.72;51.43;101349.73;105971;1304;21972;-64
2022/11/07 04:17:40;;;;;;;12.70;8.10;;;;;;;9.73;51.46;101348.33;105951;1302;22088;-65
2022/11/07 04:20:07;;;;;;;11.60;7.20;;;;;;;9.73;51.45;101349.02;105925;1304;21969;-64
2022/11/07 04:22:33;;;;;;;14.20;7.70;;;;;;;9.72;51.38;101348.15;105996;1302;21974;-64
2022/11/07 04:25:00;;;;;;;12.90;7.70;;;;;;;9.73;51.41;101350.25;105980;1304;21967;-64
2022/11/07 04:27:45;;;;;;;12.00;6.20;;;;;;;9.76;51.31;101351.50;105987;1305;23708;-65
2022/11/07 04:30:19;;;;;;;19.30;8.20;;;;;;;9.77;51.44;101356.42;106039;1305;21967;-66
2022/11/07 04:32:49;;;;;;;11.80;7.60;;;;;;;9.80;51.28;101360.83;105891;1304;21958;-66
2022/11/07 04:35:14;;;;;;;16.50;7.50;;;;;;;9.79;51.37;101359.42;106017;1304;21967;-64
2022/11/07 04:37:40;;;;;;;14.00;8.20;;;;;;;9.80;51.42;101361.35;106070;1301;21962;-65
2022/11/07 04:40:10;;;;;;;14.70;8.40;;;;;;;9.80;51.30;101363.80;105998;1304;21965;-65
2022/11/07 04:42:36;;;;;;;12.20;8.00;;;;;;;9.78;51.38;101360.64;106037;1305;21960;-65
2022/11/07 04:45:03;;;;;;;16.90;7.20;;;;;;;9.77;51.51;101362.91;106040;1299;21984;-65
2022/11/07 04:47:29;;;;;;;15.80;8.10;;;;;;;9.80;51.64;101362.91;105972;1304;22030;-63
2022/11/07 04:49:54;;;;;;;23.30;8.10;;;;;;;9.79;51.60;101365.38;105978;1305;24061;-64
2022/11/07 04:52:20;;;;;;;24.70;9.00;;;;;;;9.80;51.80;101363.98;106018;1305;21958;-62
2022/11/07 04:54:46;;;;;;;27.90;8.90;;;;;;;9.82;51.85;101366.27;106000;1304;22005;-62
2022/11/07 04:57:12;;;;;;;34.70;9.60;;;;;;;9.83;51.79;101366.63;106109;1304;21955;-62
2022/11/07 04:59:38;;;;;;;21.00;8.30;;;;;;;9.86;51.66;101367.88;106032;1304;21971;-62
2022/11/07 05:02:04;;;;;;;20.00;7.50;;;;;;;9.88;51.72;101371.05;105299;1304;1003262;-62
2022/11/07 05:04:30;;;;;;;18.30;7.50;;;;;;;9.89;51.79;101368.42;106046;1304;21971;-64
2022/11/07 05:06:56;;;;;;;14.00;7.20;;;;;;;9.89;51.75;101372.81;105997;1304;21953;-62
2022/11/07 05:09:21;;;;;;;16.10;6.90;;;;;;;9.92;51.73;101376.85;105993;1304;21962;-64
2022/11/07 05:11:47;;;;;;;16.70;7.40;;;;;;;9.95;51.80;101379.49;106039;1304;21980;-61
2022/11/07 05:14:18;;;;;;;;;;;;;;;9.98;51.79;101383.02;106060;1304;21952;-63
2022/11/07 05:16:45;;;;;;;15.70;7.80;;;;;;;10.01;51.76;101383.91;106000;1300;21956;-64
2022/11/07 05:19:15;;;;;;;13.80;6.80;;;;;;;10.01;51.83;101385.84;105958;1304;21965;-64
2022/11/07 05:21:43;;;;;;;17.70;6.80;;;;;;;10.02;51.76;101382.87;106162;1304;21961;-61
2022/11/07 05:24:09;;;;;;;10.00;5.60;;;;;;;10.01;51.83;101388.83;106041;1304;22424;-64
2022/11/07 05:26:35;;;;;;;12.40;6.40;;;;;;;10.03;51.99;101387.78;105951;1304;21958;-61
2022/11/07 05:29:00;;;;;;;11.60;6.90;;;;;;;10.06;52.02;101388.69;106000;1304;21971;-61
2022/11/07 05:31:26;;;;;;;9.40;6.40;;;;;;;10.09;52.06;101389.05;106015;1300;21965;-63
2022/11/07 05:33:52;;;;;;;12.60;6.50;;;;;;;10.13;51.96;101389.27;106002;1304;22427;-61
2022/11/07 05:36:19;;;;;;;12.10;6.50;;;;;;;10.16;52.01;101392.25;105983;1304;21961;-61
2022/11/07 05:38:47;;;;;;;15.10;6.30;;;;;;;10.18;52.16;101396.46;106041;1304;22124;-64
2022/11/07 05:41:13;;;;;;;21.80;6.50;;;;;;;10.21;52.02;101397.00;106025;1304;21971;-63
2022/11/07 05:43:39;;;;;;;31.70;7.50;;;;;;;10.25;52.27;101398.44;106032;1304;22022;-64
2022/11/07 05:46:05;;;;;;;23.70;6.70;;;;;;;10.32;52.34;101400.95;106099;1301;21968;-61
2022/11/07 05:48:31;;;;;;;21.90;7.00;;;;;;;10.38;52.38;101404.48;106042;1304;21974;-64
2022/11/07 05:50:57;;;;;;;25.90;6.90;;;;;;;10.43;52.24;101406.27;106038;1304;21965;-65
2022/11/07 05:53:24;;;;;;;15.90;6.80;;;;;;;10.48;52.16;101408.59;106042;1304;22451;-64
2022/11/07 05:55:51;;;;;;;15.70;6.50;;;;;;;10.52;52.25;101412.46;106047;1304;22011;-63
2022/11/07 05:58:17;;;;;;;14.10;5.90;;;;;;;10.56;52.15;101412.84;107945;1304;21764;-64
2022/11/07 06:00:42;;;;;;;13.00;5.90;;;;;;;10.62;52.24;101410.58;105726;1304;1002445;-61
2022/11/07 06:03:08;;;;;;;9.90;5.10;;;;;;;10.65;52.20;101406.89;107922;1300;21996;-65
2022/11/07 06:05:38;;;;;;;11.00;6.00;;;;;;;10.68;52.10;101407.61;107654;1306;21793;-66
2022/11/07 06:08:05;;;;;;;8.20;5.80;;;;;;;10.71;52.01;101409.56;107940;1301;21752;-61
2022/11/07 06:10:33;;;;;;;9.30;5.80;;;;;;;10.73;52.01;101415.01;107593;1304;21968;-65
2022/11/07 06:13:01;;;;;;;10.40;5.70;;;;;;;10.74;52.05;101418.70;106640;1306;23660;-67
2022/11/07 06:15:30;;;;;;;;;;;;;;;10.76;52.25;101417.13;106132;1304;21951;-66
2022/11/07 06:17:59;;;;;;;9.30;5.30;;;;;;;10.78;52.20;101419.42;105984;1304;21975;-66
2022/11/07 06:20:26;;;;;;;7.80;5.30;;;;;;;10.80;52.10;101418.55;105976;1304;21987;-66
2022/11/07 06:22:57;;;;;;;12.70;5.30;;;;;;;10.83;52.25;101417.31;105935;1301;21965;-66
2022/11/07 06:25:23;;;;;;;8.90;6.10;;;;;;;10.89;52.34;101414.35;105936;1304;21969;-62
2022/11/07 06:27:49;;;;;;;9.10;5.40;;;;;;;10.94;52.25;101411.39;105995;1304;22052;-65
2022/11/07 06:30:15;;;;;;;9.80;6.50;;;;;;;10.99;52.24;101415.45;106032;1304;22191;-65
2022/11/07 06:32:43;;;;;;;7.90;5.60;;;;;;;11.04;52.33;101416.51;105742;1304;361822;-65
2022/11/07 06:35:10;;;;;;;13.00;7.00;;;;;;;11.05;52.36;101410.70;106023;1304;21953;-65
2022/11/07 06:37:37;;;;;;;8.20;5.40;;;;;;;11.05;52.58;101413.16;105979;1301;21961;-64
2022/11/07 06:40:04;;;;;;;9.60;5.70;;;;;;;11.13;52.63;101412.13;105669;1307;21978;-65
2022/11/07 06:42:31;;;;;;;8.60;6.10;;;;;;;11.22;52.39;101404.24;106092;1299;22730;-61
2022/11/07 06:44:57;;;;;;;9.40;5.30;;;;;;;11.29;52.32;101404.44;105913;1301;21973;-66
2022/11/07 06:47:22;;;;;;;12.30;6.20;;;;;;;11.36;52.21;101405.48;106026;1304;21967;-67
2022/11/07 06:49:48;;;;;;;10.30;6.30;;;;;;;11.39;52.24;101404.27;106015;1304;21960;-61
2022/11/07 06:52:15;;;;;;;12.30;6.10;;;;;;;11.42;52.18;101402.50;105992;1304;21970;-62
2022/11/07 06:54:42;;;;;;;8.30;5.60;;;;;;;11.45;52.21;101403.56;106045;1304;21967;-65
2022/11/07 06:57:08;;;;;;;10.80;5.80;;;;;;;11.50;52.34;101402.14;106146;1304;22013;-64
2022/11/07 06:59:34;;;;;;;8.50;5.40;;;;;;;11.54;52.31;101401.09;105993;1304;21993;-61
2022/11/07 07:01:59;;;;;;;8.70;5.60;;;;;;;11.60;52.21;101399.70;106010;1304;21997;-62
2022/11/07 07:04:25;;;;;;;8.70;5.00;;;;;;;11.65;52.22;101398.47;106004;1304;21957;-62
2022/11/07 07:06:51;;;;;;;11.00;5.30;;;;;;;11.71;52.30;101395.13;105954;1303;21957;-66
2022/11/07 07:09:17;;;;;;;8.80;5.50;;;;;;;11.79;52.22;101392.83;105907;1302;21984;-66
2022/11/07 07:11:44;;;;;;;9.40;5.50;;;;;;;11.87;52.24;101393.88;105889;1304;21985;-65
2022/11/07 07:14:10;;;;;;;8.20;5.10;;;;;;;11.95;52.24;101390.70;107904;1301;21772;-66
2022/11/07 07:16:36;;;;;;;8.00;5.60;;;;;;;12.03;52.08;101388.95;107988;1303;21770;-68
2022/11/07 07:19:02;;;;;;;7.50;5.00;;;;;;;12.10;52.25;101388.23;107922;1298;21939;-66
2022/11/07 07:21:28;;;;;;;7.10;4.60;;;;;;;12.17;51.99;101387.85;107929;1304;21903;-63
2022/11/07 07:23:54;;;;;;;15.80;4.80;;;;;;;12.26;52.04;101386.78;107130;1304;23101;-62
2022/11/07 07:26:20;;;;;;;6.60;4.70;;;;;;;12.36;52.08;101385.52;106031;1304;22053;-62
2022/11/07 07:28:47;;;;;;;7.40;5.20;;;;;;;12.44;52.11;101384.08;106067;1301;22007;-65
2022/11/07 07:31:13;;;;;;;5.90;4.30;;;;;;;12.51;52.10;101383.53;106052;1304;21981;-65
2022/11/07 07:33:43;;;;;;;7.10;4.40;;;;;;;12.57;52.06;101383.67;105962;1304;22007;-65
2022/11/07 07:36:10;;;;;;;10.10;4.60;;;;;;;12.64;51.97;101381.70;105961;1301;21972;-62
2022/11/07 07:38:36;;;;;;;8.20;4.60;;;;;;;12.70;51.76;101380.08;105967;1304;21971;-62
2022/11/07 07:41:02;;;;;;;7.40;4.20;;;;;;;12.77;51.63;101379.52;106118;1300;21959;-64
2022/11/07 07:43:28;;;;;;;7.70;4.30;;;;;;;12.86;51.74;101381.05;106012;1298;21962;-64
2022/11/07 07:46:00;;;;;;;8.20;4.30;;;;;;;12.97;51.87;101380.64;106067;1304;21978;-62
2022/11/07 07:48:27;;;;;;;7.20;4.90;;;;;;;13.11;51.88;101377.55;106077;1304;23828;-65
2022/11/07 07:50:53;;;;;;;7.20;4.70;;;;;;;13.23;51.85;101377.30;106090;1302;22028;-64
2022/11/07 07:53:19;;;;;;;7.20;4.40;;;;;;;13.36;51.81;101372.45;105952;1301;22052;-62
2022/11/07 07:55:44;;;;;;;12.80;4.70;;;;;;;13.48;51.76;101373.07;105726;1306;21966;-64
2022/11/07 07:58:10;;;;;;;9.10;4.00;;;;;;;13.59;51.67;101374.58;105933;1304;23080;-63
2022/11/07 08:00:36;;;;;;;7.40;4.30;;;;;;;13.68;51.48;101370.43;105943;1301;22159;-65
2022/11/07 08:03:11;;;;;;;14.80;5.00;;;;;;;13.77;51.47;101370.34;107906;1305;21815;-65
2022/11/07 08:05:38;;;;;;;21.70;4.20;;;;;;;13.84;51.19;101367.11;106285;1304;21962;-65
2022/11/07 08:08:05;;;;;;;11.40;4.50;;;;;;;13.90;51.29;101368.10;106021;1304;23145;-62
2022/11/07 08:10:30;;;;;;;11.40;4.70;;;;;;;13.98;51.38;101367.49;105941;1304;21928;-61
2022/11/07 08:13:03;;;;;;;14.90;5.30;;;;;;;14.07;51.06;101367.21;105989;1291;22008;-65
2022/11/07 08:15:29;;;;;;;9.40;4.40;;;;;;;14.13;50.95;101369.80;106049;1304;21964;-65
2022/11/07 08:17:55;;;;;;;8.20;4.40;;;;;;;14.17;50.99;101367.45;106015;1300;21963;-63
2022/11/07 08:20:26;;;;;;;7.20;4.20;;;;;;;14.20;50.81;101368.12;105826;1305;21979;-63
2022/11/07 08:23:00;;;;;;;7.90;4.30;;;;;;;14.24;50.81;101365.78;106045;1304;22017;-62
2022/11/07 08:25:26;;;;;;;8.30;3.80;;;;;;;14.28;50.78;101367.86;106081;1304;21957;-64
2022/11/07 08:27:52;;;;;;;6.70;3.50;;;;;;;14.30;50.64;101370.13;106009;1304;21966;-65
2022/11/07 08:30:18;;;;;;;9.70;4.00;;;;;;;14.35;50.54;101371.67;105963;1304;22004;-64
2022/11/07 08:32:44;;;;;;;9.00;3.90;;;;;;;14.39;50.49;101377.26;106004;1304;21973;-65
2022/11/07 08:35:10;;;;;;;6.70;3.60;;;;;;;14.44;50.49;101373.14;105965;1304;21973;-64
2022/11/07 08:37:36;;;;;;;5.40;3.70;;;;;;;14.48;50.56;101372.91;106105;1304;21992;-65
2022/11/07 08:40:03;;;;;;;5.50;3.20;;;;;;;14.54;50.27;101373.02;106013;1304;21979;-65
2022/11/07 08:42:28;;;;;;;5.30;3.00;;;;;;;14.54;50.32;101373.17;106025;1304;21970;-65
2022/11/07 08:44:54;;;;;;;5.90;3.70;;;;;;;14.58;50.27;101371.02;105996;1304;22064;-65
2022/11/07 08:47:20;;;;;;;5.90;3.60;;;;;;;14.62;50.31;101369.55;105781;1306;21963;-65
2022/11/07 08:49:46;;;;;;;7.80;3.70;;;;;;;14.65;50.27;101365.63;105810;1304;21989;-65
2022/11/07 08:52:11;;;;;;;5.90;3.30;;;;;;;14.68;50.18;101365.42;105970;1304;22041;-65
2022/11/07 08:54:38;;;;;;;10.10;3.40;;;;;;;14.72;49.96;101363.45;106034;1304;21970;-65
2022/11/07 08:57:04;;;;;;;8.20;4.10;;;;;;;14.71;50.07;101359.04;105972;1304;21965;-65
2022/11/07 08:59:30;;;;;;;8.40;3.20;;;;;;;14.73;50.12;101361.85;106058;1300;21987;-65
2022/11/07 09:01:56;;;;;;;4.70;2.50;;;;;;;14.76;49.98;101360.74;106011;1295;21970;-65
2022/11/07 09:04:22;;;;;;;7.00;3.10;;;;;;;14.79;49.89;101361.77;105932;1304;21961;-65
2022/11/07 09:06:47;;;;;;;8.30;3.60;;;;;;;14.82;49.86;101359.59;105995;1304;21967;-65
2022/11/07 09:09:13;;;;;;;4.90;3.30;;;;;;;14.86;49.76;101362.19;105894;1304;21962;-65
2022/11/07 09:11:41;;;;;;;6.70;3.30;;;;;;;14.90;49.84;101359.30;105999;1304;22011;-65
2022/11/07 09:14:08;;;;;;;5.50;3.10;;;;;;;14.96;49.75;101359.23;107779;1304;22005;-63
2022/11/07 09:16:34;;;;;;;6.70;3.40;;;;;;;14.99;49.60;101359.89;106009;1300;21973;-62
2022/11/07 09:19:01;;;;;;;7.20;3.40;;;;;;;15.01;49.56;101360.90;105975;1304;21959;-62
2022/11/07 09:21:27;;;;;;;7.40;3.30;;;;;;;15.06;49.56;101364.02;106003;1304;21999;-63
2022/11/07 09:23:53;;;;;;;5.20;3.00;;;;;;;15.14;49.50;101363.54;106000;1304;21962;-63
2022/11/07 09:26:20;;;;;;;5.10;3.30;;;;;;;15.18;49.45;101357.84;106031;1304;21998;-63
2022/11/07 09:28:45;;;;;;;6.00;3.30;;;;;;;15.20;49.43;101354.80;105980;1304;21965;-63
2022/11/07 09:31:11;;;;;;;4.90;3.10;;;;;;;15.21;49.29;101353.02;105993;1304;21959;-64
2022/11/07 09:33:39;;;;;;;5.00;3.80;;;;;;;15.22;49.35;101354.58;105984;1304;21971;-64
2022/11/07 09:36:06;;;;;;;6.20;3.20;;;;;;;15.23;49.21;101354.21;106003;1304;22033;-63
2022/11/07 09:38:31;;;;;;;5.30;3.20;;;;;;;15.25;49.17;101354.34;105946;1302;22008;-63
2022/11/07 09:41:04;;;;;;;5.50;3.60;;;;;;;15.27;48.53;101353.26;105750;1305;21954;-63
2022/11/07 09:43:47;;;;;;;5.80;3.50;;;;;;;15.15;47.86;101351.67;106066;1304;21984;-63
2022/11/07 09:46:44;;;;;;;5.10;3.00;;;;;;;15.06;48.74;101353.75;105994;1304;21958;-63
2022/11/07 09:49:23;;;;;;;5.20;3.00;;;;;;;15.11;48.92;101352.63;105999;1304;21974;-63
2022/11/07 09:51:51;;;;;;;5.70;2.30;;;;;;;15.18;49.03;101345.80;106022;1305;22005;-63
2022/11/07 09:54:23;;;;;;;8.70;3.50;;;;;;;15.27;49.01;101343.90;106053;1304;21968;-64
2022/11/07 09:56:49;;;;;;;5.10;2.70;;;;;;;15.34;48.78;101337.77;105809;1305;21981;-63
2022/11/07 09:59:22;;;;;;;5.70;3.00;;;;;;;15.39;48.91;101335.56;105808;1305;21978;-65
2022/11/07 10:01:47;;;;;;;5.30;3.10;;;;;;;15.47;48.94;101334.53;105976;1304;21980;-63
2022/11/07 10:04:17;;;;;;;4.80;3.00;;;;;;;15.55;48.86;101336.69;105759;1301;22008;-63
2022/11/07 10:06:56;;;;;;;6.30;2.90;;;;;;;15.62;48.75;101333.21;106004;1297;21960;-64
2022/11/07 10:09:22;;;;;;;6.80;3.40;;;;;;;15.68;48.43;101330.98;105789;1306;21957;-64
2022/11/07 10:12:03;;;;;;;5.20;3.30;;;;;;;15.69;48.40;101329.89;105991;1304;21974;-64
2022/11/07 10:14:34;;;;;;;5.60;3.20;;;;;;;15.69;48.46;101325.11;106044;1304;23143;-64
2022/11/07 10:17:29;;;;;;;6.90;3.20;;;;;;;15.71;48.35;101324.89;105366;1304;1002632;-64
2022/11/07 10:20:09;;;;;;;4.40;3.10;;;;;;;15.72;48.27;101318.51;106012;1304;21975;-63
2022/11/07 10:22:54;;;;;;;6.50;2.90;;;;;;;15.74;48.30;101316.70;105931;1306;22006;-63
2022/11/07 10:25:25;;;;;;;5.00;3.40;;;;;;;15.76;48.22;101314.02;105994;1304;22031;-63
2022/11/07 10:28:17;;;;;;;;;;;;;;;15.78;48.18;101308.32;106038;1304;21956;-63
2022/11/07 10:30:53;;;;;;;5.00;3.00;;;;;;;15.82;48.17;101306.13;105985;1304;21977;-63
2022/11/07 10:33:51;;;;;;;4.80;2.80;;;;;;;15.86;48.05;101304.66;105989;1304;23624;-62
2022/11/07 10:36:20;;;;;;;4.90;2.80;;;;;;;15.86;47.97;101302.35;105934;1304;21961;-64
2022/11/07 10:38:45;;;;;;;6.00;3.80;;;;;;;15.88;47.99;101299.14;106043;1304;21973;-64
2022/11/07 10:41:16;;;;;;;7.90;3.30;;;;;;;15.93;47.96;101300.27;105939;1303;21982;-63
2022/11/07 10:43:43;;;;;;;4.70;3.00;;;;;;;15.97;47.81;101294.54;106101;1303;21945;-63
2022/11/07 10:46:13;;;;;;;6.00;3.60;;;;;;;15.99;47.87;101292.71;105992;1303;21966;-63
2022/11/07 10:48:50;;;;;;;6.20;3.90;;;;;;;16.00;47.40;101295.17;106007;1304;21976;-63
2022/11/07 10:51:17;;;;;;;6.10;3.20;;;;;;;15.93;47.37;101295.67;106075;1304;23816;-63
2022/11/07 10:53:43;;;;;;;6.40;3.20;;;;;;;15.91;47.52;101292.52;105782;1305;21976;-63
2022/11/07 10:56:10;;;;;;;5.30;3.60;;;;;;;15.92;47.64;101289.67;106091;1299;21964;-63
2022/11/07 10:58:41;;;;;;;9.80;3.60;;;;;;;15.95;47.63;101292.80;106153;1299;22422;-64
2022/11/07 11:01:07;;;;;;;6.00;3.70;;;;;;;16.01;47.65;101289.50;105977;1305;21980;-63
2022/11/07 11:03:44;;;;;;;4.50;3.00;;;;;;;16.06;47.28;101288.88;106024;1304;21957;-63
2022/11/07 11:06:29;;;;;;;5.60;3.10;;;;;;;16.04;47.35;101286.25;106000;1300;21975;-63
2022/11/07 11:08:55;;;;;;;6.80;3.20;;;;;;;16.05;47.36;101281.10;106102;1304;21973;-63
2022/11/07 11:11:32;;;;;;;6.60;2.80;;;;;;;16.06;47.41;101280.20;105926;1304;21999;-64
2022/11/07 11:14:02;;;;;;;8.00;3.30;;;;;;;16.11;47.34;101280.80;105996;1304;21983;-63
2022/11/07 11:16:29;;;;;;;6.30;3.70;;;;;;;16.17;47.12;101277.83;106059;1304;21960;-63
2022/11/07 11:18:58;;;;;;;7.00;3.80;;;;;;;16.17;46.89;101276.95;106064;1304;21948;-63
2022/11/07 11:21:25;;;;;;;6.70;3.30;;;;;;;16.15;46.96;101272.39;105972;1304;21966;-64
2022/11/07 11:23:51;;;;;;;5.40;3.10;;;;;;;16.18;47.20;101275.34;105944;1304;23728;-64
2022/11/07 11:26:20;;;;;;;6.10;3.70;;;;;;;16.22;47.11;101273.12;105871;1304;21970;-64